Terminal Aerodrome Forecast
Issued by NWS

Home | Current Version | Previous Version | Text Only | Print | Product List | Glossary On
Versions: 1 2 3 4 5 6 7 8 9 10 11 12 13 14 15 16 17 18 19 20
823
FTUS42 KTBW 191736
TAFPIE
TAF
KPIE 191736Z 1918/2018 06006KT P6SM SCT035 SCT250
     FM191900 22010KT P6SM SCT035 SCT250
     FM200200 19004KT P6SM SCT250
     FM200800 18003KT 5SM BR SCT025 SCT100 BKN250
      TEMPO 2009/2013 3SM BR BKN025
     FM201400 18008KT P6SM SCT025 BKN100 BKN250=

USA.gov is the U.S. government's official web portal to all federal, state and local government web resources and services.